createdAt,value
2019-04-11T00:00:55.480Z,7.33
2019-04-11T00:03:25.195Z,8.40
2019-04-11T00:05:55.120Z,7.03
2019-04-11T00:08:25.858Z,8.23
2019-04-11T00:10:55.583Z,7.13
2019-04-11T00:13:27.591Z,9.00
2019-04-11T00:15:57.155Z,7.30
2019-04-11T00:18:27.121Z,8.93
2019-04-11T00:20:56.735Z,9.30
2019-04-11T00:23:26.337Z,8.60
2019-04-11T00:25:56.178Z,7.13
2019-04-11T00:28:26.027Z,8.90
2019-04-11T00:30:56.684Z,6.57
2019-04-11T00:33:26.518Z,10.00
2019-04-11T00:35:56.091Z,9.63
2019-04-11T00:38:25.708Z,7.30
2019-04-11T00:40:55.889Z,9.40
2019-04-11T00:43:31.613Z,7.37
2019-04-11T00:45:58.102Z,6.80
2019-04-11T00:48:27.987Z,9.93
2019-04-11T00:50:57.666Z,7.70
2019-04-11T00:53:27.775Z,6.70
2019-04-11T00:55:57.371Z,7.37
2019-04-11T00:58:27.744Z,7.30
2019-04-11T01:00:57.573Z,9.40
2019-04-11T01:03:28.333Z,7.47
2019-04-11T01:05:58.257Z,7.37
2019-04-11T01:08:29.350Z,9.33
2019-04-11T01:10:59.454Z,8.17
2019-04-11T01:13:39.647Z,10.00
2019-04-11T01:16:05.211Z,6.97
2019-04-11T01:18:34.731Z,7.47
2019-04-11T01:21:04.236Z,10.87
2019-04-11T01:23:33.752Z,8.20
2019-04-11T01:26:03.367Z,8.40
2019-04-11T01:28:33.058Z,9.27
2019-04-11T01:31:05.606Z,8.40
2019-04-11T01:33:35.929Z,11.40
2019-04-11T01:36:06.874Z,10.23
2019-04-11T01:38:41.471Z,8.97
2019-04-11T01:41:12.073Z,8.80
2019-04-11T01:43:52.644Z,8.87
2019-04-11T01:46:13.970Z,7.60
2019-04-11T01:48:47.960Z,12.23
2019-04-11T01:51:17.906Z,9.47
2019-04-11T01:53:47.486Z,13.10
2019-04-11T01:56:17.342Z,9.83
2019-04-11T01:58:48.880Z,9.40
2019-04-11T02:01:28.464Z,12.70
2019-04-11T02:04:19.982Z,11.63
2019-04-11T02:06:49.965Z,9.27
2019-04-11T02:09:20.008Z,9.13
2019-04-11T02:11:49.966Z,9.70
2019-04-11T02:14:21.044Z,9.50
2019-04-11T02:16:52.020Z,10.67
2019-04-11T02:19:21.795Z,12.63
2019-04-11T02:21:53.763Z,10.43
2019-04-11T02:24:41.693Z,10.27
2019-04-11T02:27:24.788Z,8.93
2019-04-11T02:29:55.184Z,10.90
2019-04-11T02:32:27.174Z,10.10
2019-04-11T02:34:59.091Z,8.90
2019-04-11T02:37:29.382Z,10.67
2019-04-11T02:40:00.068Z,10.93
2019-04-11T02:42:30.671Z,11.37
2019-04-11T02:45:18.058Z,11.70
2019-04-11T02:47:33.315Z,10.50
2019-04-11T02:50:03.696Z,13.13
2019-04-11T02:52:33.608Z,12.73
2019-04-11T02:55:05.626Z,11.87
2019-04-11T02:57:36.235Z,10.10
2019-04-11T03:00:06.515Z,12.73
2019-04-11T03:02:39.502Z,11.77
2019-04-11T03:05:10.075Z,11.30
2019-04-11T03:07:42.164Z,12.63
2019-04-11T03:10:13.872Z,10.60
2019-04-11T03:12:43.844Z,13.13
2019-04-11T03:15:27.500Z,12.67
2019-04-11T03:17:48.631Z,13.30
2019-04-11T03:20:28.559Z,11.67
2019-04-11T03:22:56.600Z,14.20
2019-04-11T03:25:22.431Z,13.87
2019-04-11T03:27:53.755Z,14.30
2019-04-11T03:30:40.785Z,14.00
2019-04-11T03:33:55.177Z,13.33
2019-04-11T03:38:20.951Z,15.30
2019-04-11T03:40:44.952Z,14.27
2019-04-11T03:43:11.747Z,13.87
2019-04-11T03:45:48.373Z,17.20
2019-04-11T03:48:18.055Z,14.57
2019-04-11T03:50:36.738Z,14.10
2019-04-11T03:53:07.080Z,14.63
2019-04-11T03:55:37.052Z,15.97
2019-04-11T03:58:08.436Z,16.10
2019-04-11T04:00:42.858Z,13.47
2019-04-11T04:03:11.232Z,12.27
2019-04-11T04:05:42.283Z,15.00
2019-04-11T04:08:13.102Z,18.87
2019-04-11T04:11:04.045Z,14.80
2019-04-11T04:13:34.751Z,16.77
2019-04-11T04:16:24.899Z,15.83
2019-04-11T04:19:01.575Z,18.63
2019-04-11T04:21:40.837Z,17.83
2019-04-11T04:24:34.474Z,20.27
2019-04-11T04:27:04.243Z,20.07
2019-04-11T04:29:35.202Z,18.67
2019-04-11T04:32:05.453Z,18.10
2019-04-11T04:34:36.568Z,19.93
2019-04-11T04:37:07.713Z,16.17
2019-04-11T04:39:39.024Z,19.13
2019-04-11T04:42:19.767Z,21.47
2019-04-11T04:44:42.946Z,16.57
2019-04-11T04:47:21.121Z,20.30
2019-04-11T04:49:43.853Z,19.70
2019-04-11T04:52:14.402Z,19.57
2019-04-11T04:54:44.506Z,21.93
2019-04-11T04:57:15.530Z,17.53
2019-04-11T04:59:46.802Z,16.87
2019-04-11T05:02:17.789Z,20.57
2019-04-11T05:04:48.035Z,19.20
2019-04-11T05:07:19.264Z,18.20
2019-04-11T05:09:50.371Z,19.90
2019-04-11T05:12:20.558Z,23.67
2019-04-11T05:14:51.826Z,17.90
2019-04-11T05:17:23.161Z,19.07
2019-04-11T05:19:52.990Z,23.80
2019-04-11T05:22:24.719Z,18.65
2019-04-11T05:24:55.888Z,19.50
2019-04-11T05:27:26.098Z,22.77
2019-04-11T05:29:55.527Z,25.53
2019-04-11T05:32:27.125Z,24.13
2019-04-11T05:34:56.219Z,26.40
2019-04-11T05:37:26.946Z,20.27
2019-04-11T05:39:56.737Z,21.40
2019-04-11T05:42:27.379Z,20.50
2019-04-11T05:44:57.042Z,19.67
2019-04-11T05:47:27.550Z,18.33
2019-04-11T05:50:16.119Z,19.60
2019-04-11T05:52:45.621Z,20.90
2019-04-11T05:55:15.528Z,17.23
2019-04-11T05:57:46.999Z,16.53
2019-04-11T06:00:28.407Z,21.07
2019-04-11T06:03:01.745Z,15.70
2019-04-11T06:05:56.360Z,19.60
2019-04-11T06:08:28.433Z,17.13
2019-04-11T06:11:04.665Z,15.93
2019-04-11T06:13:38.814Z,17.53
2019-04-11T06:16:08.533Z,18.03
2019-04-11T06:18:57.160Z,15.67
2019-04-11T06:21:37.135Z,17.83
2019-04-11T06:24:34.826Z,24.03
2019-04-11T06:27:11.164Z,15.30
2019-04-11T06:30:07.390Z,17.17
2019-04-11T06:33:14.398Z,15.47
2019-04-11T06:35:56.726Z,13.40
2019-04-11T06:38:44.950Z,15.03
2019-04-11T06:41:36.834Z,17.47
2019-04-11T06:44:24.347Z,13.80
2019-04-11T06:47:12.454Z,14.47
2019-04-11T06:50:04.114Z,18.20
2019-04-11T06:52:34.884Z,17.57
2019-04-11T06:55:26.877Z,15.40
2019-04-11T06:58:12.950Z,14.70
2019-04-11T07:00:45.983Z,14.03
2019-04-11T07:03:23.219Z,15.23
2019-04-11T07:05:49.681Z,19.70
2019-04-11T07:08:22.281Z,18.60
2019-04-11T07:10:59.488Z,12.03
2019-04-11T07:13:43.998Z,15.40
2019-04-11T07:16:15.429Z,16.03
2019-04-11T07:19:02.949Z,12.80
2019-04-11T07:21:36.558Z,13.30
2019-04-11T07:24:24.711Z,13.50
2019-04-11T07:27:03.188Z,18.43
2019-04-11T07:29:44.686Z,13.17
2019-04-11T07:32:23.430Z,11.60
2019-04-11T07:35:11.025Z,14.87
2019-04-11T07:37:49.353Z,14.77
2019-04-11T07:40:37.050Z,17.63
2019-04-11T07:43:13.325Z,17.70
2019-04-11T07:46:02.720Z,13.87
2019-04-11T07:48:38.111Z,14.40
2019-04-11T07:51:29.790Z,12.40
2019-04-11T07:54:01.004Z,14.57
2019-04-11T07:56:44.410Z,13.83
2019-04-11T07:59:25.014Z,12.07
2019-04-11T08:02:12.471Z,14.33
2019-04-11T08:05:16.396Z,11.77
2019-04-11T08:08:00.792Z,11.57
2019-04-11T08:10:35.186Z,13.10
2019-04-11T08:13:09.974Z,12.37
2019-04-11T08:16:08.489Z,11.03
2019-04-11T08:18:57.333Z,12.70
2019-04-11T08:21:46.139Z,11.50
2019-04-11T08:24:22.549Z,11.43
2019-04-11T08:27:17.662Z,13.17
2019-04-11T08:29:50.149Z,11.33
2019-04-11T08:32:44.254Z,14.13
2019-04-11T08:35:40.163Z,13.90
2019-04-11T08:38:16.220Z,12.80
2019-04-11T08:40:53.605Z,11.53
2019-04-11T08:43:29.102Z,12.67
2019-04-11T08:46:03.071Z,10.90
2019-04-11T08:48:35.171Z,9.90
2019-04-11T08:51:12.822Z,11.60
2019-04-11T08:54:00.005Z,13.20
2019-04-11T08:56:29.630Z,12.37
2019-04-11T08:59:29.545Z,10.20
2019-04-11T09:02:00.322Z,9.23
2019-04-11T09:05:12.012Z,10.63
2019-04-11T09:07:54.118Z,11.33
2019-04-11T09:10:42.417Z,10.90
2019-04-11T09:13:22.863Z,12.87
2019-04-11T09:16:15.227Z,9.07
2019-04-11T09:18:44.751Z,16.63
2019-04-11T09:21:40.322Z,13.10
2019-04-11T09:24:30.508Z,9.53
2019-04-11T09:27:38.416Z,12.60
2019-04-11T09:30:15.865Z,9.80
2019-04-11T09:33:17.200Z,8.60
2019-04-11T09:35:49.203Z,12.20
2019-04-11T09:38:19.214Z,14.57
2019-04-11T09:40:58.735Z,10.93
2019-04-11T09:43:30.032Z,9.93
2019-04-11T09:46:24.258Z,10.50
2019-04-11T09:49:06.576Z,9.60
2019-04-11T09:51:45.555Z,10.60
2019-04-11T09:54:37.020Z,9.57
2019-04-11T09:57:20.652Z,11.13
2019-04-11T10:00:24.140Z,9.60
2019-04-11T10:03:00.818Z,9.20
2019-04-11T10:05:58.783Z,11.20
2019-04-11T10:08:35.148Z,9.60
2019-04-11T10:11:42.077Z,7.90
2019-04-11T10:14:17.504Z,10.50
2019-04-11T10:17:04.928Z,8.60
2019-04-11T10:19:53.989Z,10.70
2019-04-11T10:22:48.598Z,8.57
2019-04-11T10:25:45.429Z,8.33
2019-04-11T10:28:29.530Z,10.37
2019-04-11T10:31:14.559Z,11.33
2019-04-11T10:33:59.609Z,9.83
2019-04-11T10:36:35.037Z,8.20
2019-04-11T10:39:24.986Z,8.70
2019-04-11T10:41:57.936Z,9.77
2019-04-11T10:44:34.576Z,9.00
2019-04-11T10:47:09.939Z,9.10
2019-04-11T10:50:11.126Z,8.87
2019-04-11T10:52:44.666Z,9.67
2019-04-11T10:55:21.619Z,11.93
2019-04-11T10:58:10.898Z,8.33
2019-04-11T11:00:49.745Z,10.80
2019-04-11T11:03:29.059Z,11.10
2019-04-11T11:06:00.007Z,9.87
2019-04-11T11:08:39.786Z,9.50
2019-04-11T11:11:31.019Z,9.50
2019-04-11T11:14:28.974Z,8.67
2019-04-11T11:17:43.757Z,11.63
2019-04-11T11:20:21.529Z,8.23
2019-04-11T11:23:09.063Z,8.20
2019-04-11T11:25:47.529Z,11.63
2019-04-11T11:28:14.123Z,8.67
2019-04-11T11:31:05.498Z,9.40
2019-04-11T11:33:35.381Z,8.50
2019-04-11T11:36:23.543Z,9.03
2019-04-11T11:39:06.687Z,9.20
2019-04-11T11:42:02.104Z,8.27
2019-04-11T11:44:50.616Z,8.93
2019-04-11T11:47:39.514Z,8.10
2019-04-11T11:50:15.706Z,8.47
2019-04-11T11:53:08.243Z,8.33
2019-04-11T11:55:37.696Z,7.83
2019-04-11T11:58:43.545Z,10.03
2019-04-11T12:01:13.562Z,8.23
2019-04-11T12:04:08.672Z,8.70
2019-04-11T12:06:39.260Z,8.70
2019-04-11T12:09:26.690Z,8.60
2019-04-11T12:12:02.055Z,9.57
2019-04-11T12:14:47.814Z,9.13
2019-04-11T12:17:52.025Z,9.10
2019-04-11T12:20:44.454Z,10.33
2019-04-11T12:23:42.812Z,9.03
2019-04-11T12:26:01.478Z,12.57
2019-04-11T12:29:05.920Z,9.40
2019-04-11T12:31:37.141Z,8.80
2019-04-11T12:34:24.052Z,9.30
2019-04-11T12:36:54.773Z,10.33
2019-04-11T12:40:02.583Z,9.50
2019-04-11T12:42:35.406Z,10.93
2019-04-11T12:45:24.170Z,9.03
2019-04-11T12:47:56.746Z,8.07
2019-04-11T12:50:44.075Z,9.30
2019-04-11T12:53:18.517Z,8.67
2019-04-11T12:56:16.197Z,10.40
2019-04-11T12:58:55.919Z,9.97
2019-04-11T13:01:43.055Z,8.77
2019-04-11T13:04:29.952Z,9.70
2019-04-11T13:07:27.735Z,8.50
2019-04-11T13:10:04.051Z,8.80
2019-04-11T13:12:58.807Z,11.27
2019-04-11T13:15:40.866Z,11.17
2019-04-11T13:18:32.601Z,10.07
2019-04-11T13:21:30.146Z,8.37
2019-04-11T13:24:22.307Z,10.00
2019-04-11T13:27:23.013Z,8.83
2019-04-11T13:30:17.509Z,8.03
2019-04-11T13:32:51.857Z,9.60
2019-04-11T13:35:37.823Z,9.70
2019-04-11T13:38:18.925Z,10.17
2019-04-11T13:41:07.390Z,9.43
2019-04-11T13:43:50.888Z,9.30
2019-04-11T13:46:49.210Z,14.07
2019-04-11T13:49:44.350Z,9.20
2019-04-11T13:52:32.805Z,10.20
2019-04-11T13:55:21.238Z,9.20
2019-04-11T13:58:12.893Z,9.83
2019-04-11T14:00:47.718Z,11.10
2019-04-11T14:03:49.482Z,9.77
2019-04-11T14:06:28.242Z,8.93
2019-04-11T14:09:22.849Z,8.57
2019-04-11T14:12:00.291Z,8.97
2019-04-11T14:14:52.071Z,10.27
2019-04-11T14:17:43.146Z,12.83
2019-04-11T14:20:30.012Z,10.17
2019-04-11T14:23:24.526Z,9.43
2019-04-11T14:26:11.695Z,9.30
2019-04-11T14:28:50.150Z,11.10
2019-04-11T14:31:37.512Z,10.40
2019-04-11T14:34:19.906Z,10.43
2019-04-11T14:37:08.318Z,10.23
2019-04-11T14:39:40.210Z,10.90
2019-04-11T14:42:28.721Z,9.00
2019-04-11T14:44:59.022Z,10.10
2019-04-11T14:47:47.459Z,9.47
2019-04-11T14:50:18.289Z,9.40
2019-04-11T14:53:07.122Z,11.70
2019-04-11T14:55:40.858Z,9.20
2019-04-11T14:58:38.234Z,10.20
2019-04-11T15:01:11.847Z,9.07
2019-04-11T15:04:03.326Z,9.73
2019-04-11T15:06:37.874Z,9.60
2019-04-11T15:09:25.298Z,9.80
2019-04-11T15:11:57.722Z,10.17
2019-04-11T15:14:38.626Z,10.33
2019-04-11T15:17:16.886Z,10.53
2019-04-11T15:20:02.558Z,9.67
2019-04-11T15:22:51.147Z,10.23
2019-04-11T15:25:42.966Z,9.83
2019-04-11T15:28:27.312Z,10.03
2019-04-11T15:31:00.309Z,9.23
2019-04-11T15:33:49.443Z,13.13
2019-04-11T15:36:20.350Z,12.23
2019-04-11T15:39:09.162Z,11.67
2019-04-11T15:41:40.895Z,8.50
2019-04-11T15:44:47.817Z,8.73
2019-04-11T15:47:19.668Z,8.83
2019-04-11T15:50:10.883Z,9.50
2019-04-11T15:52:49.006Z,8.30
2019-04-11T15:55:37.711Z,9.73
2019-04-11T15:58:12.477Z,8.73
2019-04-11T16:00:55.206Z,9.10
2019-04-11T16:03:26.420Z,11.00
2019-04-11T16:06:13.723Z,9.53
2019-04-11T16:08:46.632Z,8.43
2019-04-11T16:11:35.339Z,8.87
2019-04-11T16:14:15.499Z,10.40
2019-04-11T16:17:16.132Z,9.03
2019-04-11T16:19:58.065Z,9.13
2019-04-11T16:23:01.952Z,11.07
2019-04-11T16:25:31.758Z,9.33
2019-04-11T16:28:35.803Z,8.87
2019-04-11T16:31:09.658Z,8.10
2019-04-11T16:33:53.408Z,8.33
2019-04-11T16:36:44.593Z,8.83
2019-04-11T16:39:52.045Z,8.33
2019-04-11T16:42:47.114Z,6.93
2019-04-11T16:45:35.654Z,8.00
2019-04-11T16:48:05.399Z,7.83
2019-04-11T16:50:37.500Z,7.90
2019-04-11T16:53:10.939Z,7.00
2019-04-11T16:55:42.413Z,6.40
2019-04-11T16:58:15.199Z,7.33
2019-04-11T17:00:41.975Z,8.90
2019-04-11T17:03:11.463Z,6.70
2019-04-11T17:05:42.627Z,7.40
2019-04-11T17:08:38.039Z,7.60
2019-04-11T17:11:10.022Z,7.77
2019-04-11T17:13:39.892Z,6.67
2019-04-11T17:16:12.401Z,6.50
2019-04-11T17:18:42.179Z,7.27
2019-04-11T17:21:11.662Z,7.30
2019-04-11T17:23:41.162Z,7.00
2019-04-11T17:26:10.671Z,8.47
2019-04-11T17:28:40.188Z,9.50
2019-04-11T17:31:10.355Z,6.73
2019-04-11T17:33:39.903Z,9.77
2019-04-11T17:36:09.505Z,7.10
2019-04-11T17:38:39.450Z,6.90
2019-04-11T17:41:11.796Z,8.33
2019-04-11T17:43:42.167Z,6.17
2019-04-11T17:46:11.990Z,7.80
2019-04-11T17:48:41.469Z,9.23
2019-04-11T17:51:10.986Z,9.70
2019-04-11T17:53:40.875Z,7.87
2019-04-11T17:56:10.409Z,7.23
2019-04-11T17:58:39.963Z,9.90
2019-04-11T18:01:09.474Z,7.97
2019-04-11T18:03:41.803Z,9.30
2019-04-11T18:06:10.470Z,6.97
2019-04-11T18:08:40.093Z,7.60
2019-04-11T18:11:09.600Z,5.93
2019-04-11T18:13:39.094Z,7.33
2019-04-11T18:16:08.771Z,7.67
2019-04-11T18:18:38.278Z,6.50
2019-04-11T18:21:09.472Z,6.90
2019-04-11T18:23:38.982Z,6.43
2019-04-11T18:26:08.520Z,7.77
2019-04-11T18:28:37.998Z,6.47
2019-04-11T18:31:07.506Z,7.27
2019-04-11T18:33:36.999Z,7.80
2019-04-11T18:36:07.496Z,8.00
2019-04-11T18:38:37.433Z,6.83
2019-04-11T18:41:07.319Z,5.40
2019-04-11T18:43:37.374Z,5.80
2019-04-11T18:46:07.747Z,6.63
2019-04-11T18:48:37.238Z,5.90
2019-04-11T18:51:06.723Z,6.33
2019-04-11T18:53:36.230Z,5.80
2019-04-11T18:56:05.726Z,8.00
2019-04-11T18:58:35.274Z,5.90
2019-04-11T19:01:08.848Z,8.17
2019-04-11T19:03:36.651Z,6.20
2019-04-11T19:06:06.436Z,7.47
2019-04-11T19:08:36.104Z,7.20
2019-04-11T19:11:05.604Z,7.10
2019-04-11T19:13:35.411Z,6.63
2019-04-11T19:16:04.893Z,6.77
2019-04-11T19:18:34.428Z,7.00
2019-04-11T19:21:03.922Z,8.47
2019-04-11T19:23:33.422Z,6.90
2019-04-11T19:26:03.675Z,6.00
2019-04-11T19:28:33.502Z,6.10
2019-04-11T19:31:03.022Z,7.00
2019-04-11T19:33:34.315Z,6.03
2019-04-11T19:36:03.713Z,6.53
2019-04-11T19:38:34.463Z,7.90
2019-04-11T19:41:04.334Z,7.63
2019-04-11T19:43:33.862Z,6.40
2019-04-11T19:46:03.386Z,6.60
2019-04-11T19:48:33.210Z,7.10
2019-04-11T19:51:02.746Z,7.23
2019-04-11T19:53:33.028Z,6.10
2019-04-11T19:56:27.880Z,6.13
2019-04-11T19:58:57.411Z,5.60
2019-04-11T20:01:27.404Z,5.77
2019-04-11T20:03:56.906Z,7.73
2019-04-11T20:06:26.475Z,6.73
2019-04-11T20:08:55.971Z,6.20
2019-04-11T20:11:25.470Z,6.53
2019-04-11T20:13:54.994Z,7.03
2019-04-11T20:16:24.514Z,7.37
2019-04-11T20:18:56.960Z,7.67
2019-04-11T20:21:25.870Z,7.37
2019-04-11T20:23:55.891Z,7.17
2019-04-11T20:26:25.427Z,8.17
2019-04-11T20:28:54.935Z,6.93
2019-04-11T20:31:24.467Z,8.03
2019-04-11T20:33:53.961Z,8.43
2019-04-11T20:36:32.901Z,5.27
2019-04-11T20:38:54.838Z,6.10
2019-04-11T20:41:24.338Z,6.00
2019-04-11T20:43:56.844Z,5.73
2019-04-11T20:46:28.762Z,5.10
2019-04-11T20:48:56.948Z,5.30
2019-04-11T20:51:26.439Z,4.60
2019-04-11T20:53:55.996Z,7.07
2019-04-11T20:56:25.519Z,7.70
2019-04-11T20:58:55.050Z,5.63
2019-04-11T21:01:26.229Z,7.40
2019-04-11T21:04:00.134Z,5.00
2019-04-11T21:06:26.911Z,4.40
2019-04-11T21:08:56.462Z,7.33
2019-04-11T21:11:25.967Z,3.63
2019-04-11T21:13:55.454Z,6.40
2019-04-11T21:16:25.123Z,4.43
2019-04-11T21:18:55.460Z,4.70
2019-04-11T21:21:25.754Z,7.17
2019-04-11T21:23:58.001Z,3.77
2019-04-11T21:26:28.879Z,4.80
2019-04-11T21:28:58.978Z,7.07
2019-04-11T21:31:31.055Z,6.07
2019-04-11T21:34:02.306Z,4.07
2019-04-11T21:36:32.161Z,4.70
2019-04-11T21:39:03.931Z,5.30
2019-04-11T21:41:36.016Z,5.03
2019-04-11T21:44:06.497Z,4.50
2019-04-11T21:46:38.113Z,6.27
2019-04-11T21:49:07.048Z,5.20
2019-04-11T21:51:39.019Z,6.13
2019-04-11T21:54:08.199Z,5.93
2019-04-11T21:56:37.712Z,5.90
2019-04-11T21:59:07.283Z,6.00
2019-04-11T22:01:39.370Z,5.00
2019-04-11T22:04:09.418Z,5.87
2019-04-11T22:06:38.914Z,5.23
2019-04-11T22:09:09.662Z,6.10
2019-04-11T22:11:39.182Z,5.17
2019-04-11T22:14:10.942Z,6.20
2019-04-11T22:16:44.219Z,5.30
2019-04-11T22:19:13.917Z,5.03
2019-04-11T22:21:45.030Z,4.67
2019-04-11T22:24:13.370Z,8.63
2019-04-11T22:26:42.879Z,5.87
2019-04-11T22:29:12.746Z,5.27
2019-04-11T22:31:42.251Z,7.33
2019-04-11T22:34:22.119Z,6.03
2019-04-11T22:36:51.656Z,4.83
2019-04-11T22:39:21.166Z,5.50
2019-04-11T22:41:50.857Z,6.40
2019-04-11T22:44:20.497Z,5.20
2019-04-11T22:46:50.040Z,9.20
2019-04-11T22:49:19.574Z,4.93
2019-04-11T22:51:49.103Z,5.90
2019-04-11T22:54:18.655Z,6.30
2019-04-11T22:56:48.150Z,4.33
2019-04-11T22:59:17.990Z,5.00
2019-04-11T23:01:47.923Z,6.40
2019-04-11T23:04:17.665Z,4.67
2019-04-11T23:06:47.843Z,7.40
2019-04-11T23:09:19.563Z,4.90
2019-04-11T23:11:48.580Z,5.43
2019-04-11T23:14:18.075Z,5.17
2019-04-11T23:16:47.615Z,5.50
2019-04-11T23:19:17.126Z,5.90
2019-04-11T23:21:46.646Z,4.70
2019-04-11T23:24:16.158Z,4.40
2019-04-11T23:26:46.051Z,4.93
2019-04-11T23:29:16.127Z,4.40
2019-04-11T23:31:46.202Z,5.90
2019-04-11T23:34:15.697Z,4.60
2019-04-11T23:36:45.207Z,6.03
2019-04-11T23:39:15.524Z,4.83
2019-04-11T23:41:45.021Z,4.80
2019-04-11T23:44:14.543Z,3.87
2019-04-11T23:46:44.047Z,5.00
2019-04-11T23:49:13.582Z,5.60
2019-04-11T23:51:43.594Z,4.50
2019-04-11T23:54:22.758Z,3.97
2019-04-11T23:56:44.624Z,5.20
2019-04-11T23:59:14.150Z,4.40
